Fieldsville, Vermont
Current Conditions -  °F | °C
As of 9:54 AM on Thursday 18 Dec 2014 (Local Time) from KVSF Reporting Station
Overcast Overcast  
Wind Chill: 28°   Ceiling: 2600
Heat Index: 36°   Visibility: 10mi
Dew Point: 27°   Wind: 12mph
Humidity: 70%   Direction: 290°WNW
Pressure: 29.81"   Gusts: 17mph
Location:  43.4897°N, 72.4482°W
Report Text: KVSF 181454Z AUTO 29010G15KT 10SM BKN026 OVC080 02/M03 A2981 RMK AO2 SLP100 T00221028 51017 TSNO
Loading
Personal Weather Stations






























Interactive Weather Map New forecast layout! Learn more

10-Day Weather Forecast

Advertisements
Track Severe Weather on mobile